sensor_id;sensor_type;location;lat;lon;timestamp;pressure;altitude;pressure_sealevel;temperature;humidity
25350;BME280;13302;48.796;11.978;2024-02-21T00:01:53;97797.06;;;8.14;36.50
25350;BME280;13302;48.796;11.978;2024-02-21T00:04:43;97790.34;;;8.06;36.96
25350;BME280;13302;48.796;11.978;2024-02-21T00:07:30;97790.66;;;8.05;37.01
25350;BME280;13302;48.796;11.978;2024-02-21T00:10:17;97789.44;;;8.11;36.91
25350;BME280;13302;48.796;11.978;2024-02-21T00:13:05;97783.59;;;8.12;36.79
25350;BME280;13302;48.796;11.978;2024-02-21T00:15:52;97780.53;;;8.14;36.76
25350;BME280;13302;48.796;11.978;2024-02-21T00:18:39;97779.72;;;8.13;37.10
25350;BME280;13302;48.796;11.978;2024-02-21T00:21:26;97777.25;;;8.12;37.03
25350;BME280;13302;48.796;11.978;2024-02-21T00:24:13;97779.06;;;8.16;36.80
25350;BME280;13302;48.796;11.978;2024-02-21T00:27:00;97780.53;;;8.14;36.99
25350;BME280;13302;48.796;11.978;2024-02-21T00:29:47;97773.91;;;8.15;36.95
25350;BME280;13302;48.796;11.978;2024-02-21T00:32:34;97770.34;;;8.14;36.76
25350;BME280;13302;48.796;11.978;2024-02-21T00:35:21;97762.25;;;8.18;36.63
25350;BME280;13302;48.796;11.978;2024-02-21T00:38:09;97759.63;;;8.13;36.78
25350;BME280;13302;48.796;11.978;2024-02-21T00:40:56;97752.28;;;8.08;36.63
25350;BME280;13302;48.796;11.978;2024-02-21T00:43:43;97745.38;;;8.11;36.83
25350;BME280;13302;48.796;11.978;2024-02-21T00:46:30;97752.47;;;8.12;36.80
25350;BME280;13302;48.796;11.978;2024-02-21T00:49:17;97750.72;;;8.16;36.49
25350;BME280;13302;48.796;11.978;2024-02-21T00:52:04;97745.53;;;8.14;36.89
25350;BME280;13302;48.796;11.978;2024-02-21T00:54:51;97740.34;;;8.13;36.58
25350;BME280;13302;48.796;11.978;2024-02-21T00:57:40;97738.09;;;8.15;36.63
25350;BME280;13302;48.796;11.978;2024-02-21T01:00:27;97736.91;;;8.07;36.80
25350;BME280;13302;48.796;11.978;2024-02-21T01:03:14;97740.97;;;8.10;36.38
25350;BME280;13302;48.796;11.978;2024-02-21T01:06:02;97740.97;;;8.10;36.50
25350;BME280;13302;48.796;11.978;2024-02-21T01:08:49;97737.22;;;8.06;36.59
25350;BME280;13302;48.796;11.978;2024-02-21T01:11:36;97733.53;;;8.10;36.45
25350;BME280;13302;48.796;11.978;2024-02-21T01:14:23;97732.41;;;8.11;36.51
25350;BME280;13302;48.796;11.978;2024-02-21T01:17:10;97721.41;;;8.11;36.71
25350;BME280;13302;48.796;11.978;2024-02-21T01:19:57;97723.34;;;8.11;36.94
25350;BME280;13302;48.796;11.978;2024-02-21T01:22:44;97723.69;;;8.18;36.66
25350;BME280;13302;48.796;11.978;2024-02-21T01:25:31;97732.06;;;8.13;36.83
25350;BME280;13302;48.796;11.978;2024-02-21T01:28:19;97720.13;;;8.17;36.54
25350;BME280;13302;48.796;11.978;2024-02-21T01:31:08;97716.56;;;8.17;36.49
25350;BME280;13302;48.796;11.978;2024-02-21T01:33:55;97713.13;;;8.11;36.70
25350;BME280;13302;48.796;11.978;2024-02-21T01:36:42;97714.63;;;8.17;36.53
25350;BME280;13302;48.796;11.978;2024-02-21T01:39:30;97717.66;;;8.16;36.44
25350;BME280;13302;48.796;11.978;2024-02-21T01:42:17;97705.59;;;8.25;36.10
25350;BME280;13302;48.796;11.978;2024-02-21T01:45:04;97702.78;;;8.17;36.34
25350;BME280;13302;48.796;11.978;2024-02-21T01:47:51;97694.84;;;8.15;36.30
25350;BME280;13302;48.796;11.978;2024-02-21T01:50:38;97694.84;;;8.15;36.46
25350;BME280;13302;48.796;11.978;2024-02-21T01:53:29;97689.13;;;8.12;36.49
25350;BME280;13302;48.796;11.978;2024-02-21T01:56:17;97687.19;;;8.12;36.65
25350;BME280;13302;48.796;11.978;2024-02-21T01:59:04;97682.84;;;8.11;36.36
25350;BME280;13302;48.796;11.978;2024-02-21T02:01:51;97686.38;;;8.12;36.29
25350;BME280;13302;48.796;11.978;2024-02-21T02:04:39;97676.69;;;8.14;36.40
25350;BME280;13302;48.796;11.978;2024-02-21T02:07:27;97678.63;;;8.14;36.54
25350;BME280;13302;48.796;11.978;2024-02-21T02:10:14;97675.38;;;8.12;36.56
25350;BME280;13302;48.796;11.978;2024-02-21T02:13:01;97673.75;;;8.11;36.28
25350;BME280;13302;48.796;11.978;2024-02-21T02:15:48;97663.22;;;8.13;36.50
25350;BME280;13302;48.796;11.978;2024-02-21T02:18:36;97654.16;;;8.12;36.44
25350;BME280;13302;48.796;11.978;2024-02-21T02:21:29;97651.72;;;8.11;36.16
25350;BME280;13302;48.796;11.978;2024-02-21T02:24:16;97648.16;;;8.10;36.46
25350;BME280;13302;48.796;11.978;2024-02-21T02:27:04;97647.00;;;8.03;36.23
25350;BME280;13302;48.796;11.978;2024-02-21T02:29:51;97644.91;;;8.08;36.14
25350;BME280;13302;48.796;11.978;2024-02-21T02:32:39;97643.09;;;8.04;36.46
25350;BME280;13302;48.796;11.978;2024-02-21T02:35:26;97639.66;;;7.98;36.37
25350;BME280;13302;48.796;11.978;2024-02-21T02:38:13;97623.03;;;8.03;36.53
25350;BME280;13302;48.796;11.978;2024-02-21T02:41:00;97626.91;;;8.02;36.37
25350;BME280;13302;48.796;11.978;2024-02-21T02:43:48;97623.81;;;8.04;36.55
25350;BME280;13302;48.796;11.978;2024-02-21T02:46:35;97621.25;;;8.07;36.57
25350;BME280;13302;48.796;11.978;2024-02-21T02:49:22;97613.34;;;8.14;36.11
25350;BME280;13302;48.796;11.978;2024-02-21T02:52:09;97613.53;;;8.18;35.93
25350;BME280;13302;48.796;11.978;2024-02-21T02:54:56;97614.13;;;8.06;36.06
25350;BME280;13302;48.796;11.978;2024-02-21T02:57:43;97606.97;;;8.05;36.36
25350;BME280;13302;48.796;11.978;2024-02-21T03:00:30;97608.44;;;8.03;36.22
25350;BME280;13302;48.796;11.978;2024-02-21T03:03:18;97602.41;;;8.01;36.50
25350;BME280;13302;48.796;11.978;2024-02-21T03:06:05;97609.25;;;8.03;36.26
25350;BME280;13302;48.796;11.978;2024-02-21T03:08:52;97606.81;;;8.02;36.55
25350;BME280;13302;48.796;11.978;2024-02-21T03:11:41;97605.50;;;7.99;36.59
25350;BME280;13302;48.796;11.978;2024-02-21T03:14:31;97598.38;;;7.98;36.38
25350;BME280;13302;48.796;11.978;2024-02-21T03:17:18;97598.38;;;7.98;36.52
25350;BME280;13302;48.796;11.978;2024-02-21T03:20:06;97600.78;;;8.00;36.58
25350;BME280;13302;48.796;11.978;2024-02-21T03:22:59;97604.34;;;8.00;36.35
25350;BME280;13302;48.796;11.978;2024-02-21T03:25:46;97606.50;;;8.03;36.37
25350;BME280;13302;48.796;11.978;2024-02-21T03:28:33;97611.19;;;8.03;36.43
25350;BME280;13302;48.796;11.978;2024-02-21T03:31:20;97604.69;;;7.99;36.52
25350;BME280;13302;48.796;11.978;2024-02-21T03:34:07;97605.50;;;7.99;36.38
25350;BME280;13302;48.796;11.978;2024-02-21T03:36:55;97594.50;;;7.99;36.33
25350;BME280;13302;48.796;11.978;2024-02-21T03:39:42;97596.09;;;8.00;36.29
25350;BME280;13302;48.796;11.978;2024-02-21T03:42:29;97596.28;;;8.04;36.52
25350;BME280;13302;48.796;11.978;2024-02-21T03:45:18;97581.22;;;8.01;36.41
25350;BME280;13302;48.796;11.978;2024-02-21T03:48:05;97581.84;;;7.98;36.70
25350;BME280;13302;48.796;11.978;2024-02-21T03:50:53;97584.91;;;7.97;36.34
25350;BME280;13302;48.796;11.978;2024-02-21T03:53:40;97587.19;;;7.95;36.67
25350;BME280;13302;48.796;11.978;2024-02-21T03:56:27;97598.50;;;7.93;36.55
25350;BME280;13302;48.796;11.978;2024-02-21T03:59:14;97593.63;;;7.90;36.74
25350;BME280;13302;48.796;11.978;2024-02-21T04:02:01;97590.53;;;7.92;36.62
25350;BME280;13302;48.796;11.978;2024-02-21T04:04:50;97591.53;;;7.96;36.52
25350;BME280;13302;48.796;11.978;2024-02-21T04:07:38;97587.34;;;7.98;36.63
25350;BME280;13302;48.796;11.978;2024-02-21T04:10:25;97585.41;;;7.99;36.79
25350;BME280;13302;48.796;11.978;2024-02-21T04:13:12;97577.63;;;8.01;36.68
25350;BME280;13302;48.796;11.978;2024-02-21T04:15:59;97577.97;;;7.99;36.71
25350;BME280;13302;48.796;11.978;2024-02-21T04:18:48;97575.69;;;8.01;36.34
25350;BME280;13302;48.796;11.978;2024-02-21T04:21:35;97575.41;;;8.03;36.54
25350;BME280;13302;48.796;11.978;2024-02-21T04:24:23;97568.25;;;8.02;36.71
25350;BME280;13302;48.796;11.978;2024-02-21T04:27:10;97570.72;;;8.03;36.40
25350;BME280;13302;48.796;11.978;2024-02-21T04:29:57;97566.63;;;8.01;36.64
25350;BME280;13302;48.796;11.978;2024-02-21T04:32:44;97559.81;;;7.98;36.61
25350;BME280;13302;48.796;11.978;2024-02-21T04:35:31;97564.00;;;7.96;36.37
25350;BME280;13302;48.796;11.978;2024-02-21T04:38:19;97554.44;;;7.93;36.77
25350;BME280;13302;48.796;11.978;2024-02-21T04:41:06;97552.22;;;7.95;36.68
25350;BME280;13302;48.796;11.978;2024-02-21T04:43:53;97550.75;;;7.98;36.53
25350;BME280;13302;48.796;11.978;2024-02-21T04:46:42;97544.25;;;7.94;36.80
25350;BME280;13302;48.796;11.978;2024-02-21T04:49:30;97542.31;;;7.94;36.63
25350;BME280;13302;48.796;11.978;2024-02-21T04:52:17;97533.25;;;7.94;36.50
25350;BME280;13302;48.796;11.978;2024-02-21T04:55:04;97525.13;;;7.89;36.76
25350;BME280;13302;48.796;11.978;2024-02-21T04:57:51;97525.13;;;7.89;36.48
25350;BME280;13302;48.796;11.978;2024-02-21T05:00:38;97523.19;;;7.89;36.53
25350;BME280;13302;48.796;11.978;2024-02-21T05:03:26;97524.00;;;7.90;36.75
25350;BME280;13302;48.796;11.978;2024-02-21T05:06:13;97510.06;;;7.86;36.45
25350;BME280;13302;48.796;11.978;2024-02-21T05:09:00;97508.44;;;7.85;36.64
25350;BME280;13302;48.796;11.978;2024-02-21T05:11:47;97508.25;;;7.81;36.65
25350;BME280;13302;48.796;11.978;2024-02-21T05:14:34;97507.09;;;7.74;36.82
25350;BME280;13302;48.796;11.978;2024-02-21T05:17:21;97504.38;;;7.82;36.72
25350;BME280;13302;48.796;11.978;2024-02-21T05:20:09;97510.66;;;7.74;36.76
25350;BME280;13302;48.796;11.978;2024-02-21T05:22:56;97498.50;;;7.75;36.93
25350;BME280;13302;48.796;11.978;2024-02-21T05:25:43;97501.91;;;7.72;36.51
25350;BME280;13302;48.796;11.978;2024-02-21T05:28:30;97499.13;;;7.72;36.71
25350;BME280;13302;48.796;11.978;2024-02-21T05:31:18;97497.06;;;7.78;36.63
25350;BME280;13302;48.796;11.978;2024-02-21T05:34:05;97491.69;;;7.73;36.89
25350;BME280;13302;48.796;11.978;2024-02-21T05:36:52;97487.66;;;7.70;36.64
25350;BME280;13302;48.796;11.978;2024-02-21T05:39:39;97496.22;;;7.69;36.80
25350;BME280;13302;48.796;11.978;2024-02-21T05:42:26;97500.25;;;7.71;36.84
25350;BME280;13302;48.796;11.978;2024-02-21T05:45:13;97489.59;;;7.70;37.03
25350;BME280;13302;48.796;11.978;2024-02-21T05:48:03;97488.13;;;7.72;36.82
25350;BME280;13302;48.796;11.978;2024-02-21T05:50:51;97490.06;;;7.72;37.12
25350;BME280;13302;48.796;11.978;2024-02-21T05:53:38;97485.88;;;7.74;36.75
25350;BME280;13302;48.796;11.978;2024-02-21T05:56:27;97489.13;;;7.76;37.04
25350;BME280;13302;48.796;11.978;2024-02-21T05:59:15;97486.88;;;7.78;36.74
25350;BME280;13302;48.796;11.978;2024-02-21T06:02:02;97487.50;;;7.75;36.95
25350;BME280;13302;48.796;11.978;2024-02-21T06:04:51;97475.34;;;7.76;36.99
25350;BME280;13302;48.796;11.978;2024-02-21T06:07:38;97465.16;;;7.77;37.02
25350;BME280;13302;48.796;11.978;2024-02-21T06:10:26;97464.38;;;7.85;36.67
25350;BME280;13302;48.796;11.978;2024-02-21T06:13:13;97468.91;;;7.81;36.73
25350;BME280;13302;48.796;11.978;2024-02-21T06:16:00;97466.47;;;7.79;36.84
25350;BME280;13302;48.796;11.978;2024-02-21T06:18:47;97464.69;;;7.83;36.85
25350;BME280;13302;48.796;11.978;2024-02-21T06:21:34;97461.13;;;7.83;36.89
25350;BME280;13302;48.796;11.978;2024-02-21T06:24:21;97461.94;;;7.83;36.77
25350;BME280;13302;48.796;11.978;2024-02-21T06:27:08;97463.09;;;7.82;36.63
25350;BME280;13302;48.796;11.978;2024-02-21T06:29:57;97457.25;;;7.84;36.59
25350;BME280;13302;48.796;11.978;2024-02-21T06:32:44;97457.75;;;7.86;36.77
25350;BME280;13302;48.796;11.978;2024-02-21T06:35:31;97452.38;;;7.81;36.86
25350;BME280;13302;48.796;11.978;2024-02-21T06:38:19;97449.34;;;7.82;36.79
25350;BME280;13302;48.796;11.978;2024-02-21T06:41:14;97453.22;;;7.81;36.99
25350;BME280;13302;48.796;11.978;2024-02-21T06:44:02;97453.38;;;7.85;36.62
25350;BME280;13302;48.796;11.978;2024-02-21T06:46:50;97465.50;;;7.84;36.76
25350;BME280;13302;48.796;11.978;2024-02-21T06:49:37;97462.44;;;7.86;36.59
25350;BME280;13302;48.796;11.978;2024-02-21T06:52:24;97468.25;;;7.84;36.65
25350;BME280;13302;48.796;11.978;2024-02-21T06:55:12;97470.19;;;7.83;36.88
25350;BME280;13302;48.796;11.978;2024-02-21T06:57:59;97477.34;;;7.84;36.78
25350;BME280;13302;48.796;11.978;2024-02-21T07:00:46;97479.78;;;7.86;36.61
25350;BME280;13302;48.796;11.978;2024-02-21T07:03:33;97460.13;;;7.79;36.84
25350;BME280;13302;48.796;11.978;2024-02-21T07:06:20;97462.75;;;7.84;36.60
25350;BME280;13302;48.796;11.978;2024-02-21T07:09:07;97459.69;;;7.86;37.02
25350;BME280;13302;48.796;11.978;2024-02-21T07:11:55;97455.81;;;7.87;36.98
25350;BME280;13302;48.796;11.978;2024-02-21T07:14:44;97463.75;;;7.88;36.83
25350;BME280;13302;48.796;11.978;2024-02-21T07:17:31;97467.31;;;7.89;37.05
25350;BME280;13302;48.796;11.978;2024-02-21T07:20:18;97473.63;;;7.89;36.90
25350;BME280;13302;48.796;11.978;2024-02-21T07:23:05;97471.19;;;7.88;36.89
25350;BME280;13302;48.796;11.978;2024-02-21T07:25:52;97465.38;;;7.89;36.95
25350;BME280;13302;48.796;11.978;2024-02-21T07:28:40;97471.03;;;7.93;36.74
25350;BME280;13302;48.796;11.978;2024-02-21T07:31:27;97468.44;;;7.88;36.73
25350;BME280;13302;48.796;11.978;2024-02-21T07:34:14;97473.13;;;7.87;37.04
25350;BME280;13302;48.796;11.978;2024-02-21T07:37:04;97485.13;;;7.82;36.92
25350;BME280;13302;48.796;11.978;2024-02-21T07:39:51;97477.34;;;7.84;37.03
25350;BME280;13302;48.796;11.978;2024-02-21T07:42:38;97482.19;;;7.88;36.95
25350;BME280;13302;48.796;11.978;2024-02-21T07:45:25;97476.03;;;7.82;37.05
25350;BME280;13302;48.796;11.978;2024-02-21T07:48:13;97473.66;;;7.98;37.00
25350;BME280;13302;48.796;11.978;2024-02-21T07:51:00;97477.22;;;7.98;36.64
25350;BME280;13302;48.796;11.978;2024-02-21T07:53:47;97473.81;;;8.01;36.90
25350;BME280;13302;48.796;11.978;2024-02-21T07:56:35;97465.09;;;7.99;36.79
25350;BME280;13302;48.796;11.978;2024-02-21T07:59:22;97459.88;;;7.89;36.81
25350;BME280;13302;48.796;11.978;2024-02-21T08:02:16;97459.06;;;7.89;36.98
25350;BME280;13302;48.796;11.978;2024-02-21T08:05:03;97450.34;;;7.95;37.04
25350;BME280;13302;48.796;11.978;2024-02-21T08:07:51;97451.59;;;7.89;36.94
25350;BME280;13302;48.796;11.978;2024-02-21T08:10:40;97438.34;;;7.91;37.22
25350;BME280;13302;48.796;11.978;2024-02-21T08:13:27;97436.38;;;7.92;37.12
25350;BME280;13302;48.796;11.978;2024-02-21T08:16:16;97431.06;;;7.95;36.98
25350;BME280;13302;48.796;11.978;2024-02-21T08:19:03;97421.81;;;8.00;37.18
25350;BME280;13302;48.796;11.978;2024-02-21T08:21:51;97416.50;;;7.95;37.52
25350;BME280;13302;48.796;11.978;2024-02-21T08:24:38;97417.28;;;8.04;37.15
25350;BME280;13302;48.796;11.978;2024-02-21T08:27:25;97415.06;;;8.06;37.15
25350;BME280;13302;48.796;11.978;2024-02-21T08:30:13;97412.47;;;8.09;37.35
25350;BME280;13302;48.796;11.978;2024-02-21T08:33:00;97405.50;;;8.12;37.49
25350;BME280;13302;48.796;11.978;2024-02-21T08:35:47;97411.19;;;8.15;37.36
25350;BME280;13302;48.796;11.978;2024-02-21T08:38:34;97411.66;;;8.17;37.57
25350;BME280;13302;48.796;11.978;2024-02-21T08:41:23;97397.59;;;8.19;37.26
25350;BME280;13302;48.796;11.978;2024-02-21T08:44:28;97396.94;;;8.22;37.41
25350;BME280;13302;48.796;11.978;2024-02-21T08:47:15;97408.91;;;8.26;37.37
25350;BME280;13302;48.796;11.978;2024-02-21T08:50:03;97425.44;;;8.26;37.58
25350;BME280;13302;48.796;11.978;2024-02-21T08:53:04;97419.94;;;8.26;37.22
25350;BME280;13302;48.796;11.978;2024-02-21T08:55:52;97424.78;;;8.29;37.18
25350;BME280;13302;48.796;11.978;2024-02-21T08:58:40;97425.59;;;8.29;37.18
25350;BME280;13302;48.796;11.978;2024-02-21T09:01:27;97421.88;;;8.34;37.20
25350;BME280;13302;48.796;11.978;2024-02-21T09:04:16;97424.97;;;8.32;37.33
25350;BME280;13302;48.796;11.978;2024-02-21T09:07:03;97409.75;;;8.35;37.28
25350;BME280;13302;48.796;11.978;2024-02-21T09:09:50;97399.53;;;8.36;37.56
25350;BME280;13302;48.796;11.978;2024-02-21T09:12:37;97403.28;;;8.40;37.32
25350;BME280;13302;48.796;11.978;2024-02-21T09:15:25;97395.00;;;8.48;37.41
25350;BME280;13302;48.796;11.978;2024-02-21T09:18:12;97400.88;;;8.55;37.09
25350;BME280;13302;48.796;11.978;2024-02-21T09:20:59;97399.56;;;8.53;37.59
25350;BME280;13302;48.796;11.978;2024-02-21T09:23:47;97396.97;;;8.56;37.59
25350;BME280;13302;48.796;11.978;2024-02-21T09:26:34;97388.38;;;8.58;37.57
25350;BME280;13302;48.796;11.978;2024-02-21T09:29:21;97379.13;;;8.62;37.59
25350;BME280;13302;48.796;11.978;2024-02-21T09:32:13;97371.97;;;8.70;37.28
25350;BME280;13302;48.796;11.978;2024-02-21T09:35:01;97365.63;;;8.78;37.38
25350;BME280;13302;48.796;11.978;2024-02-21T09:37:49;97359.00;;;8.79;37.01
25350;BME280;13302;48.796;11.978;2024-02-21T09:40:37;97361.09;;;8.73;37.61
25350;BME280;13302;48.796;11.978;2024-02-21T09:43:26;97353.63;;;8.83;37.26
25350;BME280;13302;48.796;11.978;2024-02-21T09:46:17;97365.97;;;8.85;37.23
25350;BME280;13302;48.796;11.978;2024-02-21T09:52:08;97351.50;;;8.97;36.89
25350;BME280;13302;48.796;11.978;2024-02-21T09:54:58;97353.63;;;8.91;37.09
25350;BME280;13302;48.796;11.978;2024-02-21T09:57:45;97349.88;;;8.96;37.00
25350;BME280;13302;48.796;11.978;2024-02-21T10:00:33;97342.09;;;8.98;37.30
25350;BME280;13302;48.796;11.978;2024-02-21T10:03:20;97345.31;;;9.00;37.18
25350;BME280;13302;48.796;11.978;2024-02-21T10:06:09;97339.00;;;8.99;37.15
25350;BME280;13302;48.796;11.978;2024-02-21T10:08:56;97338.69;;;9.01;36.74
25350;BME280;13302;48.796;11.978;2024-02-21T10:11:43;97333.63;;;9.03;36.73
25350;BME280;13302;48.796;11.978;2024-02-21T10:14:30;97339.97;;;9.03;36.61
25350;BME280;13302;48.796;11.978;2024-02-21T10:17:17;97345.16;;;9.05;36.95
25350;BME280;13302;48.796;11.978;2024-02-21T10:20:10;97341.09;;;9.02;36.83
25350;BME280;13302;48.796;11.978;2024-02-21T10:23:05;97340.78;;;9.04;36.94
25350;BME280;13302;48.796;11.978;2024-02-21T10:26:07;97343.22;;;9.05;37.01
25350;BME280;13302;48.796;11.978;2024-02-21T10:28:54;97333.13;;;9.09;37.04
25350;BME280;13302;48.796;11.978;2024-02-21T10:31:42;97326.13;;;9.12;36.76
25350;BME280;13302;48.796;11.978;2024-02-21T10:34:29;97329.41;;;9.14;36.54
25350;BME280;13302;48.796;11.978;2024-02-21T10:37:17;97327.28;;;9.11;36.58
25350;BME280;13302;48.796;11.978;2024-02-21T10:40:04;97329.53;;;9.17;36.61
25350;BME280;13302;48.796;11.978;2024-02-21T10:43:01;97318.00;;;9.15;36.77
25350;BME280;13302;48.796;11.978;2024-02-21T10:45:49;97309.88;;;9.19;36.65
25350;BME280;13302;48.796;11.978;2024-02-21T10:48:44;97297.72;;;9.20;36.88
25350;BME280;13302;48.796;11.978;2024-02-21T10:51:33;97284.41;;;9.22;36.88
25350;BME280;13302;48.796;11.978;2024-02-21T10:54:34;97282.13;;;9.24;37.02
25350;BME280;13302;48.796;11.978;2024-02-21T10:57:26;97265.38;;;9.29;37.01
25350;BME280;13302;48.796;11.978;2024-02-21T11:00:17;97268.59;;;9.31;36.69
25350;BME280;13302;48.796;11.978;2024-02-21T11:03:05;97264.38;;;9.34;36.91
25350;BME280;13302;48.796;11.978;2024-02-21T11:05:52;97251.53;;;9.38;36.52
25350;BME280;13302;48.796;11.978;2024-02-21T11:08:39;97256.38;;;9.41;36.84
25350;BME280;13302;48.796;11.978;2024-02-21T11:11:27;97247.44;;;9.44;36.34
25350;BME280;13302;48.796;11.978;2024-02-21T11:14:27;97249.88;;;9.45;36.35
25350;BME280;13302;48.796;11.978;2024-02-21T11:17:18;97244.81;;;9.47;36.20
25350;BME280;13302;48.796;11.978;2024-02-21T11:20:13;97244.97;;;9.51;36.54
25350;BME280;13302;48.796;11.978;2024-02-21T11:23:00;97230.50;;;9.54;36.28
25350;BME280;13302;48.796;11.978;2024-02-21T11:25:50;97225.13;;;9.57;36.01
25350;BME280;13302;48.796;11.978;2024-02-21T11:28:38;97215.84;;;9.62;35.72
25350;BME280;13302;48.796;11.978;2024-02-21T11:31:25;97210.78;;;9.64;36.07
25350;BME280;13302;48.796;11.978;2024-02-21T11:34:17;97202.50;;;9.64;36.04
25350;BME280;13302;48.796;11.978;2024-02-21T11:37:13;97194.38;;;9.67;35.72
25350;BME280;13302;48.796;11.978;2024-02-21T11:40:03;97188.19;;;9.71;35.72
25350;BME280;13302;48.796;11.978;2024-02-21T11:42:50;97182.66;;;9.71;35.86
25350;BME280;13302;48.796;11.978;2024-02-21T11:45:37;97184.75;;;9.74;35.71
25350;BME280;13302;48.796;11.978;2024-02-21T11:48:26;97169.44;;;9.76;35.87
25350;BME280;13302;48.796;11.978;2024-02-21T11:51:21;97160.03;;;9.77;35.22
25350;BME280;13302;48.796;11.978;2024-02-21T11:54:08;97159.34;;;9.80;35.68
25350;BME280;13302;48.796;11.978;2024-02-21T11:56:55;97157.88;;;9.83;35.33
25350;BME280;13302;48.796;11.978;2024-02-21T11:59:42;97159.50;;;9.84;35.38
25350;BME280;13302;48.796;11.978;2024-02-21T12:02:31;97156.38;;;9.85;35.42
25350;BME280;13302;48.796;11.978;2024-02-21T12:05:21;97142.25;;;9.87;35.11
25350;BME280;13302;48.796;11.978;2024-02-21T12:08:08;97138.34;;;9.88;35.23
25350;BME280;13302;48.796;11.978;2024-02-21T12:10:56;97133.75;;;9.92;35.26
25350;BME280;13302;48.796;11.978;2024-02-21T12:13:43;97127.53;;;9.95;35.08
25350;BME280;13302;48.796;11.978;2024-02-21T12:16:31;97114.19;;;9.97;35.17
25350;BME280;13302;48.796;11.978;2024-02-21T12:19:19;97117.09;;;10.00;35.31
25350;BME280;13302;48.796;11.978;2024-02-21T12:22:06;97110.06;;;10.03;35.06
25350;BME280;13302;48.796;11.978;2024-02-21T12:24:55;97106.63;;;10.06;35.14
25350;BME280;13302;48.796;11.978;2024-02-21T12:27:42;97109.03;;;10.07;34.81
25350;BME280;13302;48.796;11.978;2024-02-21T12:30:30;97100.41;;;10.09;34.89
25350;BME280;13302;48.796;11.978;2024-02-21T12:33:21;97098.13;;;10.11;34.83
25350;BME280;13302;48.796;11.978;2024-02-21T12:36:08;97104.44;;;10.11;34.60
25350;BME280;13302;48.796;11.978;2024-02-21T12:38:55;97095.81;;;10.13;34.82
25350;BME280;13302;48.796;11.978;2024-02-21T12:41:43;97080.41;;;10.12;34.47
25350;BME280;13302;48.796;11.978;2024-02-21T12:44:31;97073.25;;;10.11;34.69
25350;BME280;13302;48.796;11.978;2024-02-21T12:47:19;97072.56;;;10.14;34.66
25350;BME280;13302;48.796;11.978;2024-02-21T12:50:10;97071.41;;;10.15;34.66
25350;BME280;13302;48.796;11.978;2024-02-21T12:52:57;97062.81;;;10.17;34.38
25350;BME280;13302;48.796;11.978;2024-02-21T12:55:45;97058.88;;;10.18;34.84
25350;BME280;13302;48.796;11.978;2024-02-21T12:58:33;97044.72;;;10.19;34.70
25350;BME280;13302;48.796;11.978;2024-02-21T13:01:20;97042.44;;;10.21;34.41
25350;BME280;13302;48.796;11.978;2024-02-21T13:04:08;97042.88;;;10.23;34.31
25350;BME280;13302;48.796;11.978;2024-02-21T13:06:55;97038.59;;;10.26;34.39
25350;BME280;13302;48.796;11.978;2024-02-21T13:09:42;97030.00;;;10.27;34.36
25350;BME280;13302;48.796;11.978;2024-02-21T13:12:29;97028.47;;;10.30;34.46
25350;BME280;13302;48.796;11.978;2024-02-21T13:15:17;97024.56;;;10.31;34.50
25350;BME280;13302;48.796;11.978;2024-02-21T13:18:04;97021.47;;;10.32;34.27
25350;BME280;13302;48.796;11.978;2024-02-21T13:20:52;97008.09;;;10.34;34.00
25350;BME280;13302;48.796;11.978;2024-02-21T13:23:40;97007.44;;;10.37;34.17
25350;BME280;13302;48.796;11.978;2024-02-21T13:26:27;97004.66;;;10.37;34.35
25350;BME280;13302;48.796;11.978;2024-02-21T13:29:14;96997.63;;;10.40;34.16
25350;BME280;13302;48.796;11.978;2024-02-21T13:32:01;96985.44;;;10.41;34.08
25350;BME280;13302;48.796;11.978;2024-02-21T13:34:48;96987.03;;;10.42;34.01
25350;BME280;13302;48.796;11.978;2024-02-21T13:37:36;96979.22;;;10.44;34.04
25350;BME280;13302;48.796;11.978;2024-02-21T13:40:24;96970.56;;;10.45;33.95
25350;BME280;13302;48.796;11.978;2024-02-21T13:43:12;96962.41;;;10.49;33.67
25350;BME280;13302;48.796;11.978;2024-02-21T13:46:02;96955.72;;;10.50;33.65
25350;BME280;13302;48.796;11.978;2024-02-21T13:49:01;96945.81;;;10.49;33.97
25350;BME280;13302;48.796;11.978;2024-02-21T13:51:51;96955.81;;;10.53;33.78
25350;BME280;13302;48.796;11.978;2024-02-21T13:54:38;96939.25;;;10.53;33.88
25350;BME280;13302;48.796;11.978;2024-02-21T13:57:25;96928.19;;;10.53;33.44
25350;BME280;13302;48.796;11.978;2024-02-21T14:00:13;96932.19;;;10.56;33.60
25350;BME280;13302;48.796;11.978;2024-02-21T14:03:00;96928.28;;;10.57;33.28
25350;BME280;13302;48.796;11.978;2024-02-21T14:05:48;96929.94;;;10.58;33.51
25350;BME280;13302;48.796;11.978;2024-02-21T14:08:35;96929.13;;;10.57;33.29
25350;BME280;13302;48.796;11.978;2024-02-21T14:11:23;96925.19;;;10.58;33.00
25350;BME280;13302;48.796;11.978;2024-02-21T14:14:11;96919.31;;;10.60;33.35
25350;BME280;13302;48.796;11.978;2024-02-21T14:16:58;96909.06;;;10.61;33.00
25350;BME280;13302;48.796;11.978;2024-02-21T14:19:45;96909.06;;;10.61;32.91
25350;BME280;13302;48.796;11.978;2024-02-21T14:22:33;96910.69;;;10.62;33.25
25350;BME280;13302;48.796;11.978;2024-02-21T14:25:21;96903.19;;;10.62;33.29
25350;BME280;13302;48.796;11.978;2024-02-21T14:28:08;96900.88;;;10.64;33.22
25350;BME280;13302;48.796;11.978;2024-02-21T14:30:57;96893.06;;;10.66;33.25
25350;BME280;13302;48.796;11.978;2024-02-21T14:33:45;96891.06;;;10.67;33.12
25350;BME280;13302;48.796;11.978;2024-02-21T14:36:33;96890.38;;;10.70;32.91
25350;BME280;13302;48.796;11.978;2024-02-21T14:39:20;96881.72;;;10.71;33.08
25350;BME280;13302;48.796;11.978;2024-02-21T14:42:07;96876.19;;;10.71;33.00
25350;BME280;13302;48.796;11.978;2024-02-21T14:44:57;96877.81;;;10.72;32.79
25350;BME280;13302;48.796;11.978;2024-02-21T14:47:52;96873.09;;;10.73;32.48
25350;BME280;13302;48.796;11.978;2024-02-21T14:50:39;96875.84;;;10.73;32.67